aviador You're here:

OTHH Decoded Metar

in
Report Time2017-08-18 00:00:00
UTC Time2017-08-18 01:00:47
Flight Rules vfr VFR
Wind070° at 04 kt
W.Decomp.*RWY 16: 4 kt LCW
W.Rank070° ranks 13
Current wind is below 070° avg. (7.4)
Visibility9999 m
Phenomena:N/A
Clouds:N/A
Expected CloudBase > 3,600 ft AGL from Temp-Dew spread
CeilingNone
Temp35°C
Dew Point26°C (60% RH)
Heat Index45.1°C
QNH1000 hPa
Raw Report
METAR OTHH 180000Z AUTO 07004KT 050V110 CAVOK 35/26 Q1000 NOSIG=

Extra information for OTHH:More info

Social comments